Time;durP1;ratioP1;P1;durP2;ratioP2;P2;SDS_P1;SDS_P2;PMS_P1;PMS_P2;Temp;Humidity;BMP_temperature;BMP_pressure;BME280_temperature;BME280_humidity;BME280_pressure;Samples;Min_cycle;Max_cycle;Signal;HPM_P1;HPM_P2
2021/04/05 00:00:39;;;;;;;5.32;4.93;;;;;18.00;100174.00;;;;2074728;28;20210;-48
2021/04/05 00:01:40;;;;;;;5.03;4.63;;;;;18.00;100172.00;;;;2078075;28;20248;-46
2021/04/05 00:02:41;;;;;;;5.80;5.30;;;;;18.00;100168.00;;;;2077730;28;20262;-44
2021/04/05 00:03:41;;;;;;;4.40;4.10;;;;;18.00;100166.00;;;;2077326;28;20464;-44
2021/04/05 00:04:42;;;;;;;5.23;4.83;;;;;18.00;100163.00;;;;2077428;28;20267;-43
2021/04/05 00:05:42;;;;;;;5.50;5.10;;;;;18.00;100150.00;;;;2077379;28;20221;-45
2021/04/05 00:06:42;;;;;;;5.27;4.87;;;;;18.00;100154.00;;;;2069341;28;20249;-47
2021/04/05 00:07:47;;;;;;;5.83;5.43;;;;;18.00;100141.00;;;;2073236;28;20237;-46
2021/04/05 00:08:47;;;;;;;5.63;5.20;;;;;18.00;100139.00;;;;2069119;28;20250;-44
2021/04/05 00:09:48;;;;;;;5.57;5.07;;;;;18.00;100136.00;;;;2074212;28;20225;-43
2021/04/05 00:10:50;;;;;;;5.67;5.17;;;;;18.00;100126.00;;;;2068126;28;20727;-45
2021/04/05 00:11:50;;;;;;;5.07;4.63;;;;;18.00;100126.00;;;;2072226;28;20213;-42
2021/04/05 00:12:52;;;;;;;5.50;5.10;;;;;18.00;100121.00;;;;2069020;28;20587;-47
2021/04/05 00:13:52;;;;;;;5.20;4.82;;;;;18.00;100118.00;;;;2069741;28;20219;-42
2021/04/05 00:14:52;;;;;;;5.30;4.90;;;;;18.00;100111.00;;;;2069844;28;20223;-43
2021/04/05 00:15:53;;;;;;;5.00;4.60;;;;;18.00;100112.00;;;;2067519;28;20218;-44
2021/04/05 00:16:53;;;;;;;5.33;4.83;;;;;18.00;100105.00;;;;2069403;28;20598;-45
2021/04/05 00:17:53;;;;;;;5.60;5.20;;;;;18.00;100106.00;;;;2077378;28;20217;-44
2021/04/05 00:18:54;;;;;;;5.17;4.77;;;;;18.00;100101.00;;;;2078789;28;20217;-43
2021/04/05 00:19:54;;;;;;;5.67;5.27;;;;;18.00;100100.00;;;;2079202;28;20209;-44
2021/04/05 00:21:02;;;;;;;5.07;4.67;;;;;18.00;100095.00;;;;2076941;28;20364;-44
2021/04/05 00:22:03;;;;;;;5.15;4.75;;;;;18.00;100091.00;;;;2077591;28;20245;-44
2021/04/05 00:23:04;;;;;;;5.40;4.90;;;;;18.00;100096.00;;;;2077070;28;20226;-44
2021/04/05 00:24:05;;;;;;;5.35;4.95;;;;;18.00;100088.00;;;;2078876;28;20226;-43
2021/04/05 00:25:06;;;;;;;4.87;4.47;;;;;18.00;100090.00;;;;2078168;28;20302;-47
2021/04/05 00:26:06;;;;;;;5.30;4.90;;;;;18.00;100086.00;;;;2077602;28;20334;-45
2021/04/05 00:27:07;;;;;;;4.90;4.50;;;;;18.00;100078.00;;;;2075710;28;20260;-43
2021/04/05 00:28:07;;;;;;;5.40;5.00;;;;;18.00;100081.00;;;;2070623;28;20264;-45
2021/04/05 00:29:08;;;;;;;5.53;5.10;;;;;18.00;100086.00;;;;2074411;28;20317;-42
2021/04/05 00:30:17;;;;;;;4.63;4.33;;;;;18.00;100079.00;;;;2070360;28;20218;-44
2021/04/05 00:31:17;;;;;;;5.10;4.70;;;;;17.90;100067.00;;;;2070125;28;20297;-46
2021/04/05 00:32:17;;;;;;;4.80;4.40;;;;;18.00;100077.00;;;;2069845;28;20704;-45
2021/04/05 00:33:18;;;;;;;5.60;5.20;;;;;18.00;100077.00;;;;2068428;28;20249;-45
2021/04/05 00:34:18;;;;;;;6.10;5.60;;;;;18.00;100070.00;;;;2070882;28;20269;-44
2021/04/05 00:35:19;;;;;;;4.67;4.37;;;;;18.00;100066.00;;;;2071049;28;20709;-44
2021/04/05 00:36:19;;;;;;;4.80;4.50;;;;;18.00;100074.00;;;;2068461;28;20218;-43
2021/04/05 00:37:19;;;;;;;5.27;4.87;;;;;18.00;100050.00;;;;2071065;28;20313;-45
2021/04/05 00:38:21;;;;;;;5.37;4.97;;;;;18.00;100054.00;;;;2071054;28;20749;-43
2021/04/05 00:39:21;;;;;;;5.65;5.10;;;;;18.00;100052.00;;;;2073765;28;20490;-42
2021/04/05 00:40:31;;;;;;;5.23;4.83;;;;;18.00;100047.00;;;;2070564;28;20591;-46
2021/04/05 00:41:31;;;;;;;6.10;5.60;;;;;18.00;100030.00;;;;2075729;28;20718;-44
2021/04/05 00:42:31;;;;;;;4.83;4.53;;;;;17.90;100042.00;;;;2071477;28;20211;-45
2021/04/05 00:43:33;;;;;;;5.40;5.00;;;;;18.00;100035.00;;;;2067049;28;20239;-45
2021/04/05 00:44:34;;;;;;;5.05;4.55;;;;;18.00;100028.00;;;;2070260;28;20206;-43
2021/04/05 00:45:34;;;;;;;5.50;5.07;;;;;18.00;100030.00;;;;2062360;28;20270;-46
2021/04/05 00:46:34;;;;;;;5.43;5.13;;;;;18.00;100022.00;;;;2044538;28;20882;-47
2021/04/05 00:47:53;;;;;;;5.00;4.67;;;;;18.00;100033.00;;;;2053128;28;20216;-46
2021/04/05 00:48:53;;;;;;;4.88;4.47;;;;;18.00;100024.00;;;;2076595;28;20305;-45
2021/04/05 00:49:53;;;;;;;4.83;4.43;;;;;17.90;100023.00;;;;2086087;28;20283;-42
2021/04/05 00:51:01;;;;;;;4.70;4.30;;;;;18.00;100032.00;;;;2076074;28;20221;-43
2021/04/05 00:52:03;;;;;;;5.35;4.85;;;;;18.00;100034.00;;;;2078561;28;20263;-44
2021/04/05 00:53:05;;;;;;;5.10;4.60;;;;;18.00;100022.00;;;;2077456;28;20224;-43
2021/04/05 00:54:05;;;;;;;5.40;5.00;;;;;18.00;100020.00;;;;2078764;28;20236;-43
2021/04/05 00:55:06;;;;;;;5.00;4.60;;;;;18.00;100019.00;;;;2078743;28;20240;-44
2021/04/05 00:56:07;;;;;;;5.18;4.78;;;;;18.00;100010.00;;;;2069260;28;20249;-44
2021/04/05 00:57:07;;;;;;;4.93;4.53;;;;;18.00;100008.00;;;;2061434;28;20615;-44
2021/04/05 00:58:07;;;;;;;5.17;4.80;;;;;18.00;100004.00;;;;2078070;28;20210;-42
2021/04/05 00:59:08;;;;;;;5.33;4.93;;;;;18.00;100010.00;;;;2078497;28;20251;-43
2021/04/05 01:00:12;;;;;;;5.60;5.20;;;;;17.90;100000.00;;;;2078086;28;20337;-46
2021/04/05 01:01:17;;;;;;;5.68;5.20;;;;;18.00;99995.00;;;;2075919;28;20300;-44
2021/04/05 01:02:17;;;;;;;5.10;4.70;;;;;17.90;99992.00;;;;2078321;28;20710;-47
2021/04/05 01:03:20;;;;;;;4.50;4.20;;;;;18.00;100000.00;;;;2077527;28;20217;-43
2021/04/05 01:04:20;;;;;;;4.35;4.05;;;;;18.00;99989.00;;;;2078082;28;20216;-45
2021/04/05 01:05:21;;;;;;;5.33;4.93;;;;;18.00;99992.00;;;;2078305;28;20244;-42
2021/04/05 01:06:23;;;;;;;5.13;4.70;;;;;18.00;99987.00;;;;2076570;28;20249;-43
2021/04/05 01:07:23;;;;;;;5.05;4.60;;;;;18.00;99984.00;;;;2078518;28;20592;-45
2021/04/05 01:08:24;;;;;;;5.33;4.83;;;;;18.00;99982.00;;;;2061454;28;20215;-43
2021/04/05 01:09:24;;;;;;;5.47;5.07;;;;;17.90;99979.00;;;;2067129;28;20733;-45
2021/04/05 01:10:25;;;;;;;5.80;4.93;;;;;17.90;99971.00;;;;2073762;28;20222;-47
2021/04/05 01:11:29;;;;;;;5.50;5.00;;;;;17.90;99965.00;;;;2071247;28;20303;-45
2021/04/05 01:12:29;;;;;;;4.72;4.40;;;;;17.90;99968.00;;;;2072605;28;20630;-43
2021/04/05 01:13:30;;;;;;;4.87;4.47;;;;;18.00;99964.00;;;;2069509;28;20219;-44
2021/04/05 01:14:30;;;;;;;4.50;4.17;;;;;18.00;99962.00;;;;2070735;28;20268;-44
2021/04/05 01:15:30;;;;;;;5.90;5.40;;;;;17.90;99954.00;;;;2078949;28;20247;-44
2021/04/05 01:16:31;;;;;;;4.90;4.40;;;;;17.90;99956.00;;;;2077764;28;20221;-44
2021/04/05 01:17:31;;;;;;;5.23;4.53;;;;;18.00;99948.00;;;;2078751;28;20225;-43
2021/04/05 01:18:32;;;;;;;5.47;5.00;;;;;17.90;99949.00;;;;2078649;28;20233;-43
2021/04/05 01:19:32;;;;;;;4.80;4.40;;;;;17.90;99946.00;;;;2078300;28;20210;-43
2021/04/05 01:20:33;;;;;;;5.10;4.80;;;;;17.90;99945.00;;;;2078425;28;20221;-46
2021/04/05 01:21:35;;;;;;;5.57;5.13;;;;;18.00;99941.00;;;;2075209;28;20217;-46
2021/04/05 01:22:35;;;;;;;5.00;4.60;;;;;17.90;99948.00;;;;2070244;28;20222;-44
2021/04/05 01:23:36;;;;;;;5.53;5.10;;;;;17.90;99948.00;;;;2077178;28;21049;-43
2021/04/05 01:24:36;;;;;;;4.77;4.43;;;;;17.90;99939.00;;;;2078588;28;20240;-42
2021/04/05 01:25:36;;;;;;;4.70;4.40;;;;;17.90;99945.00;;;;2077935;28;20304;-42
2021/04/05 01:26:37;;;;;;;4.90;4.50;;;;;17.90;99939.00;;;;2077989;28;20268;-43
2021/04/05 01:27:38;;;;;;;5.30;4.90;;;;;17.90;99935.00;;;;2070344;28;20219;-45
2021/04/05 01:28:38;;;;;;;5.57;5.10;;;;;17.90;99937.00;;;;2070265;28;20309;-45
2021/04/05 01:29:38;;;;;;;5.47;4.90;;;;;17.90;99922.00;;;;2069929;28;20733;-43
2021/04/05 01:30:43;;;;;;;5.23;4.73;;;;;17.90;99925.00;;;;2070680;28;20623;-43
2021/04/05 01:31:43;;;;;;;4.85;4.45;;;;;17.90;99922.00;;;;2070244;28;20223;-46
2021/04/05 01:32:43;;;;;;;4.83;4.43;;;;;17.90;99920.00;;;;2069102;28;20245;-46
2021/04/05 01:33:44;;;;;;;4.10;3.80;;;;;17.90;99918.00;;;;2061528;28;20214;-43
2021/04/05 01:34:44;;;;;;;5.50;5.10;;;;;17.70;99914.00;;;;2070137;28;20233;-45
2021/04/05 01:35:54;;;;;;;5.30;4.90;;;;;17.90;99914.00;;;;2065774;28;20234;-44
2021/04/05 01:36:59;;;;;;;4.63;4.22;;;;;17.90;99920.00;;;;2070514;28;20211;-44
2021/04/05 01:37:59;;;;;;;5.32;4.85;;;;;17.90;99911.00;;;;2075484;28;20598;-46
2021/04/05 01:39:00;;;;;;;4.97;4.67;;;;;17.90;99916.00;;;;2077660;28;20218;-43
2021/04/05 01:40:00;;;;;;;4.70;4.40;;;;;17.90;99840.00;;;;2073813;28;20633;-45
2021/04/05 01:41:10;;;;;;;5.53;5.03;;;;;17.90;99899.00;;;;2069087;28;20610;-43
2021/04/05 01:42:11;;;;;;;5.43;4.68;;;;;17.90;99899.00;;;;2071083;28;20218;-44
2021/04/05 01:43:11;;;;;;;4.53;4.23;;;;;17.90;99894.00;;;;2068171;28;20241;-43
2021/04/05 01:44:11;;;;;;;5.00;4.60;;;;;17.90;99884.00;;;;2069197;28;20933;-45
2021/04/05 01:45:16;;;;;;;4.80;4.50;;;;;17.90;99888.00;;;;2069371;28;20210;-44
2021/04/05 01:46:18;;;;;;;5.20;4.80;;;;;17.90;99886.00;;;;2061310;28;20212;-44
2021/04/05 01:47:18;;;;;;;5.50;5.10;;;;;17.90;99887.00;;;;2061360;28;20243;-44
2021/04/05 01:48:21;;;;;;;4.73;4.33;;;;;17.90;99885.00;;;;2066097;28;20230;-43
2021/04/05 01:49:22;;;;;;;5.70;5.10;;;;;17.90;99880.00;;;;2067429;28;20292;-45
2021/04/05 01:50:22;;;;;;;4.90;4.50;;;;;17.90;99864.00;;;;2069818;28;20219;-46
2021/04/05 01:51:23;;;;;;;4.70;4.40;;;;;17.90;99871.00;;;;2069318;28;20214;-44
2021/04/05 01:52:23;;;;;;;4.93;4.50;;;;;17.90;99861.00;;;;2070017;28;20250;-44
2021/04/05 01:53:24;;;;;;;5.43;4.93;;;;;17.90;99861.00;;;;2069482;28;20456;-47
2021/04/05 01:54:24;;;;;;;5.20;4.70;;;;;17.90;99864.00;;;;2070390;28;20214;-47
2021/04/05 01:55:24;;;;;;;5.10;4.70;;;;;17.90;99857.00;;;;2069928;28;20245;-42
2021/04/05 01:56:25;;;;;;;5.37;4.97;;;;;17.90;99861.00;;;;2061911;28;20223;-44
2021/04/05 01:57:26;;;;;;;5.27;4.77;;;;;17.90;99852.00;;;;2069775;28;20325;-43
2021/04/05 01:58:26;;;;;;;4.50;4.20;;;;;17.90;99854.00;;;;2070664;28;20237;-44
2021/04/05 01:59:27;;;;;;;4.87;4.47;;;;;17.90;99855.00;;;;2070522;28;20596;-43
2021/04/05 02:00:28;;;;;;;5.20;4.80;;;;;17.90;99846.00;;;;2078864;28;20263;-43
2021/04/05 02:01:30;;;;;;;5.10;4.70;;;;;17.90;99846.00;;;;2078460;28;20552;-43
2021/04/05 02:02:30;;;;;;;5.15;4.75;;;;;17.90;99840.00;;;;2078552;28;20218;-45
2021/04/05 02:03:31;;;;;;;4.60;4.20;;;;;17.90;99835.00;;;;2076267;28;20297;-44
2021/04/05 02:04:33;;;;;;;5.13;4.73;;;;;17.80;99840.00;;;;2069749;28;20222;-43
2021/04/05 02:05:42;;;;;;;4.55;4.25;;;;;17.90;99842.00;;;;2078084;28;20208;-42
2021/04/05 02:06:42;;;;;;;5.03;4.63;;;;;17.80;99832.00;;;;2078424;28;20351;-45
2021/04/05 02:07:43;;;;;;;5.03;4.63;;;;;17.90;99838.00;;;;2066422;28;20219;-43
2021/04/05 02:08:43;;;;;;;5.37;4.97;;;;;17.90;99838.00;;;;2062331;28;21513;-45
2021/04/05 02:09:44;;;;;;;4.97;4.50;;;;;17.90;99828.00;;;;2072602;28;20253;-43
2021/04/05 02:10:44;;;;;;;5.00;4.60;;;;;17.90;99771.00;;;;2071378;28;20241;-43
2021/04/05 02:11:44;;;;;;;4.50;4.20;;;;;17.90;99835.00;;;;2062751;28;20605;-46
2021/04/05 02:12:45;;;;;;;4.70;4.40;;;;;17.90;99837.00;;;;2068862;28;20615;-45
2021/04/05 02:13:47;;;;;;;4.83;4.43;;;;;17.90;99824.00;;;;2069702;28;20222;-43
2021/04/05 02:14:47;;;;;;;5.15;4.75;;;;;17.90;99818.00;;;;2069315;28;20229;-42
2021/04/05 02:15:49;;;;;;;4.80;4.40;;;;;17.90;99811.00;;;;2069051;28;20222;-41
2021/04/05 02:16:49;;;;;;;4.95;4.55;;;;;17.90;99801.00;;;;2057026;28;20215;-45
2021/04/05 02:17:49;;;;;;;4.80;4.40;;;;;17.90;99806.00;;;;2061446;28;20230;-44
2021/04/05 02:18:51;;;;;;;4.90;4.50;;;;;17.90;99792.00;;;;2069768;28;20612;-46
2021/04/05 02:19:51;;;;;;;4.78;4.28;;;;;17.90;99800.00;;;;2069910;28;20225;-42
2021/04/05 02:20:52;;;;;;;4.50;4.10;;;;;17.90;99791.00;;;;2070435;28;20823;-46
2021/04/05 02:21:52;;;;;;;5.10;4.70;;;;;17.90;99793.00;;;;2069387;28;20643;-44
2021/04/05 02:22:53;;;;;;;5.17;4.77;;;;;17.90;99784.00;;;;2060923;28;20219;-46
2021/04/05 02:23:54;;;;;;;5.00;4.60;;;;;17.90;99771.00;;;;2069381;28;20221;-43
2021/04/05 02:24:54;;;;;;;4.60;4.30;;;;;17.90;99749.00;;;;2070413;28;20242;-43
2021/04/05 02:26:06;;;;;;;4.57;4.17;;;;;17.90;99757.00;;;;2055875;28;20530;-43
2021/04/05 02:27:07;;;;;;;4.80;4.40;;;;;17.90;99762.00;;;;2067848;28;20703;-47
2021/04/05 02:28:08;;;;;;;4.85;4.47;;;;;17.90;99755.00;;;;2069527;28;20215;-42
2021/04/05 02:29:08;;;;;;;4.63;4.33;;;;;17.90;99759.00;;;;2069433;28;20256;-43
2021/04/05 02:30:09;;;;;;;4.60;4.30;;;;;17.90;99763.00;;;;2077502;28;20213;-44
2021/04/05 02:31:11;;;;;;;4.78;4.45;;;;;17.90;99761.00;;;;2077815;28;20224;-45
2021/04/05 02:32:11;;;;;;;5.10;4.70;;;;;17.90;99762.00;;;;2077263;28;20237;-45
2021/04/05 02:33:11;;;;;;;5.23;4.73;;;;;17.90;99762.00;;;;2075594;28;20563;-44
2021/04/05 02:34:13;;;;;;;5.23;4.77;;;;;17.80;99753.00;;;;2077391;28;20600;-45
2021/04/05 02:35:14;;;;;;;4.20;3.80;;;;;17.60;99752.00;;;;2069561;28;20217;-44
2021/04/05 02:36:16;;;;;;;4.63;4.33;;;;;17.90;99760.00;;;;2069650;28;20213;-44
2021/04/05 02:37:17;;;;;;;4.85;3.95;;;;;17.90;99743.00;;;;2077311;28;20262;-45
2021/04/05 02:38:17;;;;;;;4.70;4.40;;;;;17.90;99748.00;;;;2078653;28;20222;-45
2021/04/05 02:39:17;;;;;;;4.47;4.17;;;;;17.90;99750.00;;;;2073394;28;20536;-45
2021/04/05 02:40:18;;;;;;;5.00;4.60;;;;;17.90;99746.00;;;;2071879;28;20301;-43
2021/04/05 02:41:19;;;;;;;4.73;4.40;;;;;17.90;99753.00;;;;2070483;28;20630;-44
2021/04/05 02:42:19;;;;;;;4.25;3.92;;;;;17.90;99751.00;;;;2070339;28;20717;-46
2021/04/05 02:43:20;;;;;;;5.80;5.30;;;;;17.90;99753.00;;;;2068391;28;20225;-46
2021/04/05 02:44:20;;;;;;;4.07;3.70;;;;;17.80;99749.00;;;;2069806;28;20947;-46
2021/04/05 02:45:22;;;;;;;4.80;4.40;;;;;17.80;99750.00;;;;2069983;28;20218;-47
2021/04/05 02:46:24;;;;;;;4.50;4.10;;;;;17.90;99755.00;;;;2070015;28;20747;-44
2021/04/05 02:47:24;;;;;;;5.15;4.75;;;;;17.90;99750.00;;;;2069530;28;20218;-44
2021/04/05 02:48:24;;;;;;;5.03;4.50;;;;;17.90;99755.00;;;;2069322;28;20214;-43
2021/04/05 02:49:25;;;;;;;4.80;4.40;;;;;17.90;99740.00;;;;2061658;28;20301;-45
2021/04/05 02:50:27;;;;;;;4.40;4.00;;;;;17.90;99747.00;;;;2069470;28;20224;-47
2021/04/05 02:51:28;;;;;;;4.28;3.97;;;;;17.90;99755.00;;;;2053088;28;20212;-44
2021/04/05 02:52:28;;;;;;;5.67;5.17;;;;;17.90;99770.00;;;;2061389;28;20645;-45
2021/04/05 02:53:28;;;;;;;4.97;4.57;;;;;17.90;99745.00;;;;2068886;28;20211;-45
2021/04/05 02:54:29;;;;;;;4.40;4.10;;;;;17.90;99764.00;;;;2060819;28;20310;-42
2021/04/05 02:55:29;;;;;;;5.47;4.73;;;;;17.90;99754.00;;;;2061263;28;20211;-44
2021/04/05 02:56:29;;;;;;;4.60;4.20;;;;;17.80;99744.00;;;;2067938;28;20242;-47
2021/04/05 02:57:33;;;;;;;4.70;4.20;;;;;17.90;99733.00;;;;2064826;28;20215;-47
2021/04/05 02:58:34;;;;;;;4.63;4.32;;;;;17.90;99744.00;;;;2071125;28;20215;-44
2021/04/05 02:59:35;;;;;;;4.80;4.40;;;;;17.90;99735.00;;;;2068564;28;20321;-44
2021/04/05 03:00:36;;;;;;;4.17;3.80;;;;;17.90;99737.00;;;;2053019;28;20594;-43
2021/04/05 03:01:38;;;;;;;4.20;3.90;;;;;17.90;99743.00;;;;2060865;28;20663;-44
2021/04/05 03:02:39;;;;;;;4.68;4.20;;;;;17.80;99743.00;;;;2068934;28;20460;-44
2021/04/05 03:03:40;;;;;;;4.28;3.97;;;;;17.80;99738.00;;;;2051591;28;20223;-48
2021/04/05 03:04:41;;;;;;;4.10;3.80;;;;;17.80;99738.00;;;;2052652;28;20211;-44
2021/04/05 03:05:41;;;;;;;5.10;4.60;;;;;17.80;99742.00;;;;2069478;28;21312;-43
2021/04/05 03:06:42;;;;;;;4.63;4.23;;;;;17.80;99759.00;;;;2070048;28;20306;-43
2021/04/05 03:07:42;;;;;;;5.07;4.57;;;;;17.80;99721.00;;;;2076027;28;20217;-45
2021/04/05 03:08:43;;;;;;;4.57;4.20;;;;;17.80;99727.00;;;;2061784;28;20226;-43
2021/04/05 03:09:43;;;;;;;5.00;4.60;;;;;17.80;99737.00;;;;2073099;28;20305;-45
2021/04/05 03:10:43;;;;;;;4.33;4.03;;;;;17.90;99730.00;;;;2069753;28;20217;-43
2021/04/05 03:11:44;;;;;;;5.43;4.93;;;;;17.80;99732.00;;;;2065090;28;20215;-47
2021/04/05 03:12:45;;;;;;;4.30;4.00;;;;;17.80;99734.00;;;;2066833;28;20301;-44
2021/04/05 03:13:45;;;;;;;4.47;4.17;;;;;17.80;99726.00;;;;2069298;28;20215;-44
2021/04/05 03:14:45;;;;;;;4.77;4.37;;;;;17.80;99727.00;;;;2069548;28;20293;-42
2021/04/05 03:15:46;;;;;;;4.73;4.33;;;;;17.90;99723.00;;;;2070012;28;20760;-43
2021/04/05 03:16:47;;;;;;;4.30;4.00;;;;;17.80;99726.00;;;;2069632;28;20603;-46
2021/04/05 03:17:48;;;;;;;4.57;4.20;;;;;17.90;99719.00;;;;2061170;28;22216;-43
2021/04/05 03:18:49;;;;;;;5.30;4.60;;;;;17.80;99722.00;;;;2064512;28;20372;-48
2021/04/05 03:19:49;;;;;;;4.40;4.10;;;;;17.90;99714.00;;;;2077579;28;20218;-48
2021/04/05 03:20:49;;;;;;;4.07;3.83;;;;;17.80;99701.00;;;;2077855;28;20218;-43
2021/04/05 03:21:50;;;;;;;4.50;4.20;;;;;17.80;99715.00;;;;2069538;28;20218;-43
2021/04/05 03:22:50;;;;;;;4.70;4.30;;;;;17.80;99702.00;;;;2076709;28;20210;-47
2021/04/05 03:23:50;;;;;;;4.70;4.30;;;;;17.80;99710.00;;;;2069061;28;20221;-44
2021/04/05 03:24:51;;;;;;;4.93;4.53;;;;;17.80;99708.00;;;;2077500;28;20261;-44
2021/04/05 03:25:51;;;;;;;5.13;4.73;;;;;17.80;99702.00;;;;2077157;28;20223;-43
2021/04/05 03:26:51;;;;;;;4.60;4.20;;;;;17.80;99700.00;;;;2078107;28;20218;-43
2021/04/05 03:27:52;;;;;;;5.20;4.70;;;;;17.80;99701.00;;;;2078173;28;20244;-43
2021/04/05 03:28:52;;;;;;;4.90;4.50;;;;;17.80;99702.00;;;;2072512;28;20215;-43
2021/04/05 03:29:53;;;;;;;5.00;4.60;;;;;17.80;99702.00;;;;2070019;28;20245;-45
2021/04/05 03:30:55;;;;;;;4.97;4.57;;;;;17.90;99691.00;;;;2061377;28;20239;-44
2021/04/05 03:31:56;;;;;;;5.03;4.63;;;;;17.90;99691.00;;;;2061264;28;20219;-43
2021/04/05 03:33:01;;;;;;;4.60;4.20;;;;;17.90;99688.00;;;;2060543;28;20695;-43
2021/04/05 03:34:10;;;;;;;4.63;4.22;;;;;17.80;99687.00;;;;2061481;28;20285;-44
2021/04/05 03:35:11;;;;;;;6.05;4.53;;;;;17.80;99684.00;;;;2076272;28;20232;-44
2021/04/05 03:36:19;;;;;;;4.72;4.40;;;;;17.90;99682.00;;;;2075981;28;20225;-43
2021/04/05 03:37:20;;;;;;;4.63;4.22;;;;;17.90;99669.00;;;;2077468;28;20221;-46
2021/04/05 03:38:21;;;;;;;4.40;4.10;;;;;17.80;99674.00;;;;2068916;28;20696;-46
2021/04/05 03:39:21;;;;;;;4.90;4.50;;;;;17.80;99666.00;;;;2073650;28;20965;-45
2021/04/05 03:40:22;;;;;;;4.63;4.33;;;;;17.80;99668.00;;;;2061884;28;20281;-44
2021/04/05 03:41:25;;;;;;;4.90;4.50;;;;;17.80;99666.00;;;;2072615;28;20225;-45
2021/04/05 03:42:29;;;;;;;4.88;4.47;;;;;17.90;99657.00;;;;2069690;28;20215;-44
2021/04/05 03:43:32;;;;;;;4.60;4.20;;;;;17.80;99653.00;;;;2060222;28;20685;-46
2021/04/05 03:44:36;;;;;;;4.80;4.40;;;;;17.80;99659.00;;;;2045154;28;20239;-43
2021/04/05 03:45:39;;;;;;;5.18;4.78;;;;;17.80;99653.00;;;;2054555;28;20303;-47
2021/04/05 03:46:40;;;;;;;4.30;3.90;;;;;17.90;99656.00;;;;2061449;28;20228;-46
2021/04/05 03:47:49;;;;;;;4.28;3.88;;;;;17.80;99649.00;;;;2069193;28;20298;-44
2021/04/05 03:48:58;;;;;;;4.45;4.07;;;;;17.90;99635.00;;;;2069728;28;20207;-45
2021/04/05 03:50:07;;;;;;;4.95;4.55;;;;;17.80;99633.00;;;;2062173;28;20716;-43
2021/04/05 03:51:15;;;;;;;4.82;4.43;;;;;17.80;99625.00;;;;2069365;28;20306;-44
2021/04/05 03:52:26;;;;;;;5.10;4.70;;;;;17.80;99630.00;;;;2075085;28;20233;-42
2021/04/05 03:53:39;;;;;;;4.50;4.10;;;;;17.80;99629.00;;;;2077937;28;20310;-42
2021/04/05 03:54:43;;;;;;;4.70;4.30;;;;;17.80;99631.00;;;;2064227;28;20222;-47
2021/04/05 03:55:44;;;;;;;5.18;4.78;;;;;17.80;99625.00;;;;2070248;28;20218;-46
2021/04/05 03:56:46;;;;;;;4.82;4.43;;;;;17.80;99623.00;;;;2062409;28;20739;-44
2021/04/05 03:57:48;;;;;;;5.25;4.35;;;;;17.80;99619.00;;;;2062951;28;20266;-43
2021/04/05 03:58:49;;;;;;;4.97;4.50;;;;;17.80;99623.00;;;;2062700;28;20230;-43
2021/04/05 03:59:54;;;;;;;4.65;4.25;;;;;17.80;99608.00;;;;2063240;28;20218;-43
2021/04/05 04:00:54;;;;;;;5.30;4.80;;;;;17.80;99620.00;;;;2070738;28;20223;-42
2021/04/05 04:01:57;;;;;;;4.63;4.23;;;;;17.80;99588.00;;;;2062452;28;20266;-42
2021/04/05 04:02:57;;;;;;;5.40;4.90;;;;;17.80;99588.00;;;;2061869;28;20450;-46
2021/04/05 04:04:09;;;;;;;5.00;4.50;;;;;17.80;99600.00;;;;2062611;28;20327;-44
2021/04/05 04:05:14;;;;;;;5.30;4.78;;;;;17.80;99591.00;;;;2057455;28;20271;-47
2021/04/05 04:06:16;;;;;;;4.63;4.20;;;;;17.80;99591.00;;;;2063817;28;20223;-43
2021/04/05 04:07:34;;;;;;;5.00;4.60;;;;;17.80;99591.00;;;;2063716;28;20235;-44
2021/04/05 04:08:40;;;;;;;4.45;4.05;;;;;17.80;99594.00;;;;2069744;28;20238;-43
2021/04/05 04:09:40;;;;;;;5.20;4.70;;;;;17.80;99601.00;;;;2062688;28;20277;-45
2021/04/05 04:10:44;;;;;;;4.23;3.93;;;;;17.80;99597.00;;;;2063769;28;20223;-45
2021/04/05 04:11:47;;;;;;;4.85;4.40;;;;;17.80;99589.00;;;;2062058;28;20234;-42
2021/04/05 04:12:48;;;;;;;5.00;4.60;;;;;17.80;99586.00;;;;2054390;28;20278;-47
2021/04/05 04:13:48;;;;;;;5.13;4.70;;;;;17.80;99589.00;;;;2070526;28;20349;-44
2021/04/05 04:14:49;;;;;;;5.10;4.60;;;;;17.80;99582.00;;;;2062394;28;20287;-42
2021/04/05 04:15:50;;;;;;;4.27;3.97;;;;;17.80;99571.00;;;;2069207;28;20708;-46
2021/04/05 04:16:50;;;;;;;5.33;4.83;;;;;17.80;99571.00;;;;2078977;28;20730;-45
2021/04/05 04:17:50;;;;;;;5.00;4.60;;;;;17.80;99567.00;;;;2062315;28;20207;-45
2021/04/05 04:18:51;;;;;;;4.47;4.10;;;;;17.80;99565.00;;;;2054322;28;20200;-43
2021/04/05 04:19:52;;;;;;;4.60;4.30;;;;;17.80;99571.00;;;;2070291;28;20214;-43
2021/04/05 04:20:52;;;;;;;5.60;4.38;;;;;17.80;99563.00;;;;2070398;28;20299;-44
2021/04/05 04:21:52;;;;;;;5.40;4.90;;;;;17.80;99550.00;;;;2070314;28;20214;-44
2021/04/05 04:22:54;;;;;;;4.20;3.80;;;;;17.80;99572.00;;;;2068808;28;20218;-44
2021/04/05 04:23:56;;;;;;;4.60;4.20;;;;;17.80;99554.00;;;;2062043;28;20627;-45
2021/04/05 04:24:57;;;;;;;5.70;5.15;;;;;17.80;99552.00;;;;2065779;28;20207;-44
2021/04/05 04:25:57;;;;;;;4.73;4.43;;;;;17.80;99554.00;;;;2061882;28;20219;-43
2021/04/05 04:26:57;;;;;;;4.60;4.20;;;;;17.80;99561.00;;;;2054341;28;20224;-43
2021/04/05 04:27:58;;;;;;;4.67;4.27;;;;;17.80;99556.00;;;;2070593;28;20775;-43
2021/04/05 04:28:58;;;;;;;4.77;4.37;;;;;17.80;99556.00;;;;2054367;28;20794;-48
2021/04/05 04:29:58;;;;;;;4.40;4.00;;;;;17.80;99566.00;;;;2062075;28;20226;-45
2021/04/05 04:31:00;;;;;;;4.80;4.40;;;;;17.80;99560.00;;;;2071211;28;20229;-44
2021/04/05 04:32:01;;;;;;;5.32;4.93;;;;;17.80;99549.00;;;;2071138;28;20223;-45
2021/04/05 04:33:03;;;;;;;4.90;4.50;;;;;17.80;99552.00;;;;2061385;28;20222;-44
2021/04/05 04:34:03;;;;;;;4.72;4.22;;;;;17.80;99550.00;;;;2062398;28;20211;-45
2021/04/05 04:35:09;;;;;;;4.93;4.53;;;;;17.80;99550.00;;;;2070651;28;20211;-43
2021/04/05 04:36:09;;;;;;;4.75;4.35;;;;;17.80;99552.00;;;;2061824;28;20213;-46
2021/04/05 04:37:10;;;;;;;4.73;4.33;;;;;17.80;99541.00;;;;2054163;28;20218;-48
2021/04/05 04:38:10;;;;;;;4.40;4.10;;;;;17.80;99550.00;;;;2053775;28;20211;-45
2021/04/05 04:39:11;;;;;;;4.40;4.00;;;;;17.80;99551.00;;;;2060004;28;20207;-45
2021/04/05 04:40:11;;;;;;;4.78;4.38;;;;;17.80;99537.00;;;;2065677;28;20215;-44
2021/04/05 04:41:18;;;;;;;4.30;4.00;;;;;17.80;99533.00;;;;2073565;28;20273;-43
2021/04/05 04:42:19;;;;;;;4.63;4.22;;;;;17.80;99537.00;;;;2073015;28;20206;-45
2021/04/05 04:43:19;;;;;;;4.20;3.80;;;;;17.80;99536.00;;;;2077361;28;20353;-48
2021/04/05 04:44:20;;;;;;;4.20;3.73;;;;;17.80;99542.00;;;;2078343;28;20245;-47
2021/04/05 04:45:20;;;;;;;4.90;4.50;;;;;17.80;99526.00;;;;2078539;28;20218;-45
2021/04/05 04:46:20;;;;;;;4.37;3.97;;;;;17.80;99534.00;;;;2078517;28;20236;-44
2021/04/05 04:47:20;;;;;;;4.87;4.50;;;;;17.80;99537.00;;;;2078706;28;20225;-47
2021/04/05 04:48:21;;;;;;;4.33;4.03;;;;;17.80;99541.00;;;;2078521;28;20221;-45
2021/04/05 04:49:21;;;;;;;4.10;3.80;;;;;17.80;99531.00;;;;2070370;28;20210;-43
2021/04/05 04:50:22;;;;;;;5.00;4.50;;;;;17.80;99523.00;;;;2075831;28;20210;-44
2021/04/05 04:51:23;;;;;;;4.43;4.03;;;;;17.80;99531.00;;;;2070584;28;20218;-43
2021/04/05 04:52:23;;;;;;;4.50;4.10;;;;;17.80;99523.00;;;;2070490;28;20480;-46
2021/04/05 04:53:23;;;;;;;4.30;4.00;;;;;17.80;99524.00;;;;2069760;28;20214;-44
2021/04/05 04:54:24;;;;;;;4.87;4.43;;;;;17.80;99522.00;;;;2070731;28;20699;-42
2021/04/05 04:55:25;;;;;;;4.37;4.00;;;;;17.80;99525.00;;;;2070112;28;20916;-43
2021/04/05 04:56:25;;;;;;;4.57;4.15;;;;;17.80;99525.00;;;;2069819;28;20738;-47
2021/04/05 04:57:26;;;;;;;4.60;4.20;;;;;17.80;99538.00;;;;2070820;28;20218;-45
2021/04/05 04:58:26;;;;;;;4.40;4.10;;;;;17.80;99536.00;;;;2070895;28;20823;-44
2021/04/05 04:59:26;;;;;;;4.60;4.20;;;;;17.80;99519.00;;;;2070389;28;21116;-44
2021/04/05 05:00:28;;;;;;;5.27;4.70;;;;;17.80;99520.00;;;;2070127;28;20222;-47
2021/04/05 05:01:29;;;;;;;4.13;3.75;;;;;17.80;99514.00;;;;2070433;28;20737;-43
2021/04/05 05:02:29;;;;;;;4.20;3.90;;;;;17.80;99519.00;;;;2069799;28;20299;-45
2021/04/05 05:03:30;;;;;;;4.50;4.10;;;;;17.80;99517.00;;;;2060667;28;20235;-43
2021/04/05 05:04:30;;;;;;;4.60;4.13;;;;;17.80;99502.00;;;;2068664;28;20226;-43
2021/04/05 05:05:31;;;;;;;4.73;4.33;;;;;17.80;99525.00;;;;2061924;28;20216;-47
2021/04/05 05:06:31;;;;;;;4.47;4.07;;;;;17.80;99508.00;;;;2058409;28;20310;-47
2021/04/05 05:07:33;;;;;;;4.83;4.40;;;;;17.80;99507.00;;;;2067122;28;20286;-44